Belmopan, Belize
Current Conditions -  °F | °C
As of 5:00 PM on Tuesday 25 Nov 2014 (Local Time) from MZBZ Reporting Station
Scattered Clouds Scattered Clouds  
Wind Chill: 84°   Ceiling: Unl
Heat Index: 96°   Visibility: 6mi
Dew Point: 79°   Wind: 6mph
Humidity: 84%   Direction: 90°E
Pressure: 29.87"   Gusts: NA
Location:  17.25°N, 88.79°W
Report Text: MZBZ 252300Z 09005KT 9999 SCT022 29/26 A2987 Q1011 NOSIG RMK CB-W/NW/N
Loading
Personal Weather Stations






























Interactive Weather Map New forecast layout! Learn more

10-Day Weather Forecast

Advertisements
Track Severe Weather on mobile